sensor_id;sensor_type;location;lat;lon;timestamp;P1;durP1;ratioP1;P2;durP2;ratioP2
22628;SDS011;11481;53.694;9.910;2022-09-17T00:00:45;8.65;;;1.77;;
22628;SDS011;11481;53.694;9.910;2022-09-17T00:03:13;6.97;;;1.55;;
22628;SDS011;11481;53.694;9.910;2022-09-17T00:05:40;6.25;;;0.60;;
22628;SDS011;11481;53.694;9.910;2022-09-17T00:08:09;8.10;;;0.95;;
22628;SDS011;11481;53.694;9.910;2022-09-17T00:10:40;5.32;;;1.17;;
22628;SDS011;11481;53.694;9.910;2022-09-17T00:13:09;3.97;;;1.70;;
22628;SDS011;11481;53.694;9.910;2022-09-17T00:15:40;4.85;;;1.17;;
22628;SDS011;11481;53.694;9.910;2022-09-17T00:18:09;16.13;;;1.95;;
22628;SDS011;11481;53.694;9.910;2022-09-17T00:20:37;5.85;;;1.17;;
22628;SDS011;11481;53.694;9.910;2022-09-17T00:23:05;13.88;;;1.20;;
22628;SDS011;11481;53.694;9.910;2022-09-17T00:25:32;8.25;;;1.25;;
22628;SDS011;11481;53.694;9.910;2022-09-17T00:27:59;5.95;;;1.50;;
22628;SDS011;11481;53.694;9.910;2022-09-17T00:30:25;6.30;;;0.88;;
22628;SDS011;11481;53.694;9.910;2022-09-17T00:32:52;10.43;;;1.98;;
22628;SDS011;11481;53.694;9.910;2022-09-17T00:35:19;19.80;;;1.40;;
22628;SDS011;11481;53.694;9.910;2022-09-17T00:37:45;2.05;;;1.02;;
22628;SDS011;11481;53.694;9.910;2022-09-17T00:40:12;6.47;;;1.65;;
22628;SDS011;11481;53.694;9.910;2022-09-17T00:42:38;9.32;;;1.63;;
22628;SDS011;11481;53.694;9.910;2022-09-17T00:45:05;14.27;;;1.10;;
22628;SDS011;11481;53.694;9.910;2022-09-17T00:47:34;4.72;;;1.23;;
22628;SDS011;11481;53.694;9.910;2022-09-17T00:50:05;6.03;;;1.05;;
22628;SDS011;11481;53.694;9.910;2022-09-17T00:52:36;10.98;;;1.30;;
22628;SDS011;11481;53.694;9.910;2022-09-17T00:55:15;12.90;;;1.23;;
22628;SDS011;11481;53.694;9.910;2022-09-17T00:57:47;13.52;;;1.73;;
22628;SDS011;11481;53.694;9.910;2022-09-17T01:00:17;11.75;;;2.47;;
22628;SDS011;11481;53.694;9.910;2022-09-17T01:02:44;12.95;;;1.40;;
22628;SDS011;11481;53.694;9.910;2022-09-17T01:05:11;4.18;;;0.88;;
22628;SDS011;11481;53.694;9.910;2022-09-17T01:18:30;11.52;;;1.75;;
22628;SDS011;11481;53.694;9.910;2022-09-17T01:21:04;6.80;;;1.40;;
22628;SDS011;11481;53.694;9.910;2022-09-17T01:23:50;7.43;;;1.05;;
22628;SDS011;11481;53.694;9.910;2022-09-17T01:26:36;5.20;;;0.85;;
22628;SDS011;11481;53.694;9.910;2022-09-17T01:32:55;4.30;;;0.98;;
22628;SDS011;11481;53.694;9.910;2022-09-17T01:35:53;2.33;;;1.15;;
22628;SDS011;11481;53.694;9.910;2022-09-17T01:38:31;10.40;;;0.63;;
22628;SDS011;11481;53.694;9.910;2022-09-17T01:41:10;8.35;;;1.23;;
22628;SDS011;11481;53.694;9.910;2022-09-17T01:43:50;8.50;;;1.45;;
22628;SDS011;11481;53.694;9.910;2022-09-17T01:46:29;7.85;;;0.85;;
22628;SDS011;11481;53.694;9.910;2022-09-17T01:49:01;4.57;;;1.02;;
22628;SDS011;11481;53.694;9.910;2022-09-17T01:51:34;7.82;;;0.88;;
22628;SDS011;11481;53.694;9.910;2022-09-17T01:54:09;4.88;;;0.82;;
22628;SDS011;11481;53.694;9.910;2022-09-17T01:56:47;6.78;;;1.20;;
22628;SDS011;11481;53.694;9.910;2022-09-17T01:59:32;8.27;;;0.98;;
22628;SDS011;11481;53.694;9.910;2022-09-17T02:02:09;1.05;;;0.57;;
22628;SDS011;11481;53.694;9.910;2022-09-17T02:04:54;9.07;;;1.65;;
22628;SDS011;11481;53.694;9.910;2022-09-17T02:07:37;2.42;;;0.60;;
22628;SDS011;11481;53.694;9.910;2022-09-17T02:10:09;3.72;;;1.05;;
22628;SDS011;11481;53.694;9.910;2022-09-17T02:12:40;9.15;;;1.15;;
22628;SDS011;11481;53.694;9.910;2022-09-17T02:15:14;5.47;;;0.98;;
22628;SDS011;11481;53.694;9.910;2022-09-17T02:18:01;6.07;;;0.98;;
22628;SDS011;11481;53.694;9.910;2022-09-17T02:20:47;9.82;;;1.00;;
22628;SDS011;11481;53.694;9.910;2022-09-17T02:23:20;2.78;;;0.65;;
22628;SDS011;11481;53.694;9.910;2022-09-17T02:25:55;11.98;;;1.73;;
22628;SDS011;11481;53.694;9.910;2022-09-17T02:28:27;10.10;;;1.25;;
22628;SDS011;11481;53.694;9.910;2022-09-17T02:31:12;8.57;;;1.05;;
22628;SDS011;11481;53.694;9.910;2022-09-17T02:33:39;7.25;;;1.10;;
22628;SDS011;11481;53.694;9.910;2022-09-17T02:36:08;3.33;;;0.98;;
22628;SDS011;11481;53.694;9.910;2022-09-17T02:38:35;12.02;;;1.17;;
22628;SDS011;11481;53.694;9.910;2022-09-17T02:41:20;7.30;;;0.95;;
22628;SDS011;11481;53.694;9.910;2022-09-17T02:46:33;4.90;;;0.68;;
22628;SDS011;11481;53.694;9.910;2022-09-17T02:49:28;6.97;;;1.65;;
22628;SDS011;11481;53.694;9.910;2022-09-17T02:52:35;4.80;;;0.85;;
22628;SDS011;11481;53.694;9.910;2022-09-17T02:55:23;7.13;;;0.98;;
22628;SDS011;11481;53.694;9.910;2022-09-17T02:58:11;4.18;;;0.75;;
22628;SDS011;11481;53.694;9.910;2022-09-17T03:00:39;6.32;;;1.25;;
22628;SDS011;11481;53.694;9.910;2022-09-17T03:03:16;6.22;;;1.45;;
22628;SDS011;11481;53.694;9.910;2022-09-17T03:05:54;6.65;;;1.17;;
22628;SDS011;11481;53.694;9.910;2022-09-17T03:08:26;7.93;;;1.67;;
22628;SDS011;11481;53.694;9.910;2022-09-17T03:11:05;7.00;;;1.50;;
22628;SDS011;11481;53.694;9.910;2022-09-17T03:13:34;12.32;;;1.30;;
22628;SDS011;11481;53.694;9.910;2022-09-17T03:16:02;5.35;;;1.00;;
22628;SDS011;11481;53.694;9.910;2022-09-17T03:18:29;4.45;;;0.90;;
22628;SDS011;11481;53.694;9.910;2022-09-17T03:20:56;6.68;;;1.17;;
22628;SDS011;11481;53.694;9.910;2022-09-17T03:23:23;5.35;;;0.80;;
22628;SDS011;11481;53.694;9.910;2022-09-17T03:25:50;7.60;;;1.88;;
22628;SDS011;11481;53.694;9.910;2022-09-17T03:28:17;2.67;;;0.70;;
22628;SDS011;11481;53.694;9.910;2022-09-17T03:30:44;5.00;;;0.70;;
22628;SDS011;11481;53.694;9.910;2022-09-17T03:33:11;9.63;;;1.38;;
22628;SDS011;11481;53.694;9.910;2022-09-17T03:35:41;5.57;;;1.13;;
22628;SDS011;11481;53.694;9.910;2022-09-17T03:38:09;3.88;;;0.85;;
22628;SDS011;11481;53.694;9.910;2022-09-17T03:40:36;9.48;;;1.02;;
22628;SDS011;11481;53.694;9.910;2022-09-17T03:43:02;9.38;;;1.17;;
22628;SDS011;11481;53.694;9.910;2022-09-17T03:45:29;1.85;;;0.60;;
22628;SDS011;11481;53.694;9.910;2022-09-17T03:47:56;8.07;;;1.35;;
22628;SDS011;11481;53.694;9.910;2022-09-17T03:50:22;2.28;;;0.70;;
22628;SDS011;11481;53.694;9.910;2022-09-17T03:52:49;7.13;;;1.30;;
22628;SDS011;11481;53.694;9.910;2022-09-17T03:55:16;7.90;;;0.65;;
22628;SDS011;11481;53.694;9.910;2022-09-17T03:57:42;7.28;;;1.27;;
22628;SDS011;11481;53.694;9.910;2022-09-17T04:00:09;11.65;;;1.50;;
22628;SDS011;11481;53.694;9.910;2022-09-17T04:02:37;6.07;;;1.13;;
22628;SDS011;11481;53.694;9.910;2022-09-17T04:05:04;4.82;;;1.08;;
22628;SDS011;11481;53.694;9.910;2022-09-17T04:07:31;4.45;;;0.57;;
22628;SDS011;11481;53.694;9.910;2022-09-17T04:09:58;4.18;;;1.67;;
22628;SDS011;11481;53.694;9.910;2022-09-17T04:12:25;3.67;;;0.50;;
22628;SDS011;11481;53.694;9.910;2022-09-17T04:14:51;7.55;;;0.98;;
22628;SDS011;11481;53.694;9.910;2022-09-17T04:17:18;1.55;;;0.98;;
22628;SDS011;11481;53.694;9.910;2022-09-17T04:19:45;4.30;;;1.05;;
22628;SDS011;11481;53.694;9.910;2022-09-17T04:22:11;3.20;;;0.68;;
22628;SDS011;11481;53.694;9.910;2022-09-17T04:24:38;6.60;;;1.15;;
22628;SDS011;11481;53.694;9.910;2022-09-17T04:27:05;6.82;;;1.48;;
22628;SDS011;11481;53.694;9.910;2022-09-17T04:29:32;3.72;;;1.35;;
22628;SDS011;11481;53.694;9.910;2022-09-17T04:31:58;14.65;;;1.60;;
22628;SDS011;11481;53.694;9.910;2022-09-17T04:34:25;5.55;;;0.90;;
22628;SDS011;11481;53.694;9.910;2022-09-17T04:36:52;3.08;;;1.15;;
22628;SDS011;11481;53.694;9.910;2022-09-17T04:39:18;6.00;;;1.27;;
22628;SDS011;11481;53.694;9.910;2022-09-17T04:41:45;2.38;;;0.90;;
22628;SDS011;11481;53.694;9.910;2022-09-17T04:44:13;11.45;;;1.17;;
22628;SDS011;11481;53.694;9.910;2022-09-17T04:46:39;10.55;;;1.02;;
22628;SDS011;11481;53.694;9.910;2022-09-17T04:49:06;2.22;;;1.05;;
22628;SDS011;11481;53.694;9.910;2022-09-17T04:51:33;4.45;;;0.93;;
22628;SDS011;11481;53.694;9.910;2022-09-17T04:54:00;9.25;;;1.20;;
22628;SDS011;11481;53.694;9.910;2022-09-17T04:56:27;6.50;;;1.08;;
22628;SDS011;11481;53.694;9.910;2022-09-17T04:58:53;8.70;;;1.23;;
22628;SDS011;11481;53.694;9.910;2022-09-17T05:01:20;1.73;;;0.73;;
22628;SDS011;11481;53.694;9.910;2022-09-17T05:03:46;4.72;;;0.98;;
22628;SDS011;11481;53.694;9.910;2022-09-17T05:06:13;1.45;;;0.47;;
22628;SDS011;11481;53.694;9.910;2022-09-17T05:08:39;4.88;;;0.52;;
22628;SDS011;11481;53.694;9.910;2022-09-17T05:11:06;5.28;;;1.10;;
22628;SDS011;11481;53.694;9.910;2022-09-17T05:13:33;0.85;;;0.43;;
22628;SDS011;11481;53.694;9.910;2022-09-17T05:15:59;3.75;;;1.23;;
22628;SDS011;11481;53.694;9.910;2022-09-17T05:18:28;4.03;;;1.90;;
22628;SDS011;11481;53.694;9.910;2022-09-17T05:20:54;5.38;;;1.45;;
22628;SDS011;11481;53.694;9.910;2022-09-17T05:23:22;5.78;;;1.40;;
22628;SDS011;11481;53.694;9.910;2022-09-17T05:25:49;4.15;;;1.05;;
22628;SDS011;11481;53.694;9.910;2022-09-17T05:28:15;3.30;;;1.38;;
22628;SDS011;11481;53.694;9.910;2022-09-17T05:30:42;10.13;;;1.75;;
22628;SDS011;11481;53.694;9.910;2022-09-17T05:33:09;2.90;;;1.38;;
22628;SDS011;11481;53.694;9.910;2022-09-17T05:35:35;11.70;;;0.75;;
22628;SDS011;11481;53.694;9.910;2022-09-17T05:38:03;3.70;;;1.17;;
22628;SDS011;11481;53.694;9.910;2022-09-17T05:40:32;10.70;;;0.57;;
22628;SDS011;11481;53.694;9.910;2022-09-17T05:43:00;3.70;;;0.73;;
22628;SDS011;11481;53.694;9.910;2022-09-17T05:45:28;5.60;;;0.80;;
22628;SDS011;11481;53.694;9.910;2022-09-17T05:47:58;7.22;;;1.23;;
22628;SDS011;11481;53.694;9.910;2022-09-17T05:50:26;3.88;;;1.00;;
22628;SDS011;11481;53.694;9.910;2022-09-17T05:52:54;8.82;;;0.90;;
22628;SDS011;11481;53.694;9.910;2022-09-17T05:55:21;3.88;;;0.65;;
22628;SDS011;11481;53.694;9.910;2022-09-17T05:57:49;5.22;;;1.35;;
22628;SDS011;11481;53.694;9.910;2022-09-17T06:00:16;6.10;;;0.63;;
22628;SDS011;11481;53.694;9.910;2022-09-17T06:02:43;5.28;;;0.57;;
22628;SDS011;11481;53.694;9.910;2022-09-17T06:05:10;6.40;;;1.05;;
22628;SDS011;11481;53.694;9.910;2022-09-17T06:07:37;27.00;;;1.85;;
22628;SDS011;11481;53.694;9.910;2022-09-17T06:10:05;6.10;;;0.98;;
22628;SDS011;11481;53.694;9.910;2022-09-17T06:12:32;2.65;;;0.50;;
22628;SDS011;11481;53.694;9.910;2022-09-17T06:15:01;1.73;;;0.77;;
22628;SDS011;11481;53.694;9.910;2022-09-17T06:17:31;9.40;;;1.02;;
22628;SDS011;11481;53.694;9.910;2022-09-17T06:19:59;4.72;;;0.43;;
22628;SDS011;11481;53.694;9.910;2022-09-17T06:22:26;5.63;;;1.05;;
22628;SDS011;11481;53.694;9.910;2022-09-17T06:24:52;4.45;;;0.30;;
22628;SDS011;11481;53.694;9.910;2022-09-17T06:27:19;8.57;;;1.40;;
22628;SDS011;11481;53.694;9.910;2022-09-17T06:29:46;1.27;;;0.60;;
22628;SDS011;11481;53.694;9.910;2022-09-17T06:32:12;1.63;;;0.88;;
22628;SDS011;11481;53.694;9.910;2022-09-17T06:34:41;2.05;;;0.50;;
22628;SDS011;11481;53.694;9.910;2022-09-17T06:37:08;5.65;;;0.55;;
22628;SDS011;11481;53.694;9.910;2022-09-17T06:39:35;4.43;;;0.45;;
22628;SDS011;11481;53.694;9.910;2022-09-17T06:42:02;3.42;;;0.70;;
22628;SDS011;11481;53.694;9.910;2022-09-17T06:44:28;4.15;;;0.70;;
22628;SDS011;11481;53.694;9.910;2022-09-17T06:46:55;4.20;;;0.25;;
22628;SDS011;11481;53.694;9.910;2022-09-17T06:49:22;11.27;;;0.93;;
22628;SDS011;11481;53.694;9.910;2022-09-17T06:51:49;6.60;;;0.70;;
22628;SDS011;11481;53.694;9.910;2022-09-17T06:54:16;1.77;;;0.32;;
22628;SDS011;11481;53.694;9.910;2022-09-17T06:56:44;1.65;;;0.63;;
22628;SDS011;11481;53.694;9.910;2022-09-17T06:59:12;3.25;;;0.43;;
22628;SDS011;11481;53.694;9.910;2022-09-17T07:01:39;3.78;;;0.75;;
22628;SDS011;11481;53.694;9.910;2022-09-17T07:04:05;0.35;;;0.10;;
22628;SDS011;11481;53.694;9.910;2022-09-17T07:06:32;0.77;;;0.25;;
22628;SDS011;11481;53.694;9.910;2022-09-17T07:08:58;5.57;;;0.68;;
22628;SDS011;11481;53.694;9.910;2022-09-17T07:11:25;1.27;;;0.38;;
22628;SDS011;11481;53.694;9.910;2022-09-17T07:13:52;0.40;;;0.10;;
22628;SDS011;11481;53.694;9.910;2022-09-17T07:16:18;1.80;;;0.40;;
22628;SDS011;11481;53.694;9.910;2022-09-17T07:18:46;3.53;;;0.25;;
22628;SDS011;11481;53.694;9.910;2022-09-17T07:21:13;0.47;;;0.20;;
22628;SDS011;11481;53.694;9.910;2022-09-17T07:23:40;1.95;;;0.50;;
22628;SDS011;11481;53.694;9.910;2022-09-17T07:26:08;0.10;;;0.00;;
22628;SDS011;11481;53.694;9.910;2022-09-17T07:28:39;3.60;;;0.47;;
22628;SDS011;11481;53.694;9.910;2022-09-17T07:31:06;3.13;;;0.20;;
22628;SDS011;11481;53.694;9.910;2022-09-17T07:33:41;1.48;;;0.60;;
22628;SDS011;11481;53.694;9.910;2022-09-17T07:36:09;1.60;;;0.30;;
22628;SDS011;11481;53.694;9.910;2022-09-17T07:38:38;1.27;;;0.20;;
22628;SDS011;11481;53.694;9.910;2022-09-17T07:41:05;0.45;;;0.20;;
22628;SDS011;11481;53.694;9.910;2022-09-17T07:43:40;0.52;;;0.10;;
22628;SDS011;11481;53.694;9.910;2022-09-17T07:46:07;2.92;;;0.30;;
22628;SDS011;11481;53.694;9.910;2022-09-17T07:48:38;1.15;;;0.30;;
22628;SDS011;11481;53.694;9.910;2022-09-17T07:51:05;3.10;;;0.38;;
22628;SDS011;11481;53.694;9.910;2022-09-17T07:53:32;2.30;;;0.35;;
22628;SDS011;11481;53.694;9.910;2022-09-17T07:56:00;1.98;;;0.10;;
22628;SDS011;11481;53.694;9.910;2022-09-17T07:58:29;3.47;;;0.88;;
22628;SDS011;11481;53.694;9.910;2022-09-17T08:01:01;5.32;;;0.98;;
22628;SDS011;11481;53.694;9.910;2022-09-17T08:03:29;0.57;;;0.30;;
22628;SDS011;11481;53.694;9.910;2022-09-17T08:06:11;1.38;;;0.73;;
22628;SDS011;11481;53.694;9.910;2022-09-17T08:08:40;5.38;;;0.63;;
22628;SDS011;11481;53.694;9.910;2022-09-17T08:11:11;5.65;;;1.08;;
22628;SDS011;11481;53.694;9.910;2022-09-17T08:13:49;0.60;;;0.30;;
22628;SDS011;11481;53.694;9.910;2022-09-17T08:16:17;5.47;;;1.05;;
22628;SDS011;11481;53.694;9.910;2022-09-17T08:18:45;0.65;;;0.38;;
22628;SDS011;11481;53.694;9.910;2022-09-17T08:21:14;5.18;;;0.52;;
22628;SDS011;11481;53.694;9.910;2022-09-17T08:23:42;2.83;;;0.52;;
22628;SDS011;11481;53.694;9.910;2022-09-17T08:26:12;3.85;;;0.55;;
22628;SDS011;11481;53.694;9.910;2022-09-17T08:28:44;1.83;;;0.52;;
22628;SDS011;11481;53.694;9.910;2022-09-17T08:31:13;2.20;;;0.47;;
22628;SDS011;11481;53.694;9.910;2022-09-17T08:33:41;1.85;;;0.68;;
22628;SDS011;11481;53.694;9.910;2022-09-17T08:36:09;6.53;;;0.75;;
22628;SDS011;11481;53.694;9.910;2022-09-17T08:38:37;3.50;;;0.65;;
22628;SDS011;11481;53.694;9.910;2022-09-17T08:46:25;1.65;;;0.40;;
22628;SDS011;11481;53.694;9.910;2022-09-17T08:48:58;4.95;;;0.75;;
22628;SDS011;11481;53.694;9.910;2022-09-17T08:57:25;3.25;;;0.60;;
22628;SDS011;11481;53.694;9.910;2022-09-17T09:00:22;4.85;;;1.02;;
22628;SDS011;11481;53.694;9.910;2022-09-17T09:03:07;1.05;;;0.55;;
22628;SDS011;11481;53.694;9.910;2022-09-17T09:06:00;0.10;;;0.03;;
22628;SDS011;11481;53.694;9.910;2022-09-17T09:10:58;1.70;;;0.75;;
22628;SDS011;11481;53.694;9.910;2022-09-17T09:13:34;0.63;;;0.00;;
22628;SDS011;11481;53.694;9.910;2022-09-17T09:16:05;1.40;;;0.13;;
22628;SDS011;11481;53.694;9.910;2022-09-17T09:18:44;1.05;;;0.45;;
22628;SDS011;11481;53.694;9.910;2022-09-17T09:23:58;0.40;;;0.10;;
22628;SDS011;11481;53.694;9.910;2022-09-17T09:26:43;2.00;;;0.17;;
22628;SDS011;11481;53.694;9.910;2022-09-17T09:35:19;2.22;;;0.20;;
22628;SDS011;11481;53.694;9.910;2022-09-17T09:38:14;1.27;;;0.35;;
22628;SDS011;11481;53.694;9.910;2022-09-17T09:43:44;1.50;;;0.38;;
22628;SDS011;11481;53.694;9.910;2022-09-17T09:49:19;1.40;;;0.60;;
22628;SDS011;11481;53.694;9.910;2022-09-17T09:52:18;0.00;;;0.00;;
22628;SDS011;11481;53.694;9.910;2022-09-17T09:57:43;1.92;;;0.55;;
22628;SDS011;11481;53.694;9.910;2022-09-17T10:03:22;1.13;;;0.10;;
22628;SDS011;11481;53.694;9.910;2022-09-17T10:06:03;0.05;;;0.00;;
22628;SDS011;11481;53.694;9.910;2022-09-17T10:11:22;0.98;;;0.22;;
22628;SDS011;11481;53.694;9.910;2022-09-17T10:13:50;0.50;;;0.20;;
22628;SDS011;11481;53.694;9.910;2022-09-17T10:16:21;2.03;;;0.40;;
22628;SDS011;11481;53.694;9.910;2022-09-17T10:22:28;0.63;;;0.22;;
22628;SDS011;11481;53.694;9.910;2022-09-17T10:24:58;0.17;;;0.10;;
22628;SDS011;11481;53.694;9.910;2022-09-17T10:27:26;0.60;;;0.05;;
22628;SDS011;11481;53.694;9.910;2022-09-17T10:30:01;2.70;;;0.32;;
22628;SDS011;11481;53.694;9.910;2022-09-17T10:32:38;2.33;;;0.25;;
22628;SDS011;11481;53.694;9.910;2022-09-17T10:35:23;1.85;;;0.20;;
22628;SDS011;11481;53.694;9.910;2022-09-17T10:37:53;2.40;;;0.73;;
22628;SDS011;11481;53.694;9.910;2022-09-17T10:45:39;1.77;;;0.40;;
22628;SDS011;11481;53.694;9.910;2022-09-17T10:48:14;7.55;;;0.30;;
22628;SDS011;11481;53.694;9.910;2022-09-17T10:50:49;8.15;;;1.05;;
22628;SDS011;11481;53.694;9.910;2022-09-17T10:53:19;3.30;;;0.45;;
22628;SDS011;11481;53.694;9.910;2022-09-17T11:09:10;8.25;;;0.35;;
22628;SDS011;11481;53.694;9.910;2022-09-17T11:15:02;0.95;;;0.20;;
22628;SDS011;11481;53.694;9.910;2022-09-17T11:26:29;1.15;;;0.22;;
22628;SDS011;11481;53.694;9.910;2022-09-17T11:32:07;2.53;;;0.63;;
22628;SDS011;11481;53.694;9.910;2022-09-17T11:35:01;4.78;;;0.73;;
22628;SDS011;11481;53.694;9.910;2022-09-17T11:37:35;1.60;;;0.50;;
22628;SDS011;11481;53.694;9.910;2022-09-17T11:40:40;1.75;;;0.30;;
22628;SDS011;11481;53.694;9.910;2022-09-17T11:43:17;0.10;;;0.10;;
22628;SDS011;11481;53.694;9.910;2022-09-17T11:45:56;5.15;;;0.57;;
22628;SDS011;11481;53.694;9.910;2022-09-17T11:48:37;0.70;;;0.30;;
22628;SDS011;11481;53.694;9.910;2022-09-17T11:53:57;2.35;;;0.55;;
22628;SDS011;11481;53.694;9.910;2022-09-17T12:01:51;3.13;;;0.40;;
22628;SDS011;11481;53.694;9.910;2022-09-17T12:04:28;2.13;;;0.43;;
22628;SDS011;11481;53.694;9.910;2022-09-17T12:10:05;3.70;;;0.80;;
22628;SDS011;11481;53.694;9.910;2022-09-17T12:12:44;2.92;;;0.75;;
22628;SDS011;11481;53.694;9.910;2022-09-17T12:15:20;3.92;;;0.57;;
22628;SDS011;11481;53.694;9.910;2022-09-17T12:17:52;2.63;;;0.60;;
22628;SDS011;11481;53.694;9.910;2022-09-17T12:20:51;6.68;;;0.70;;
22628;SDS011;11481;53.694;9.910;2022-09-17T12:23:24;1.88;;;0.60;;
22628;SDS011;11481;53.694;9.910;2022-09-17T12:26:06;2.58;;;0.40;;
22628;SDS011;11481;53.694;9.910;2022-09-17T12:28:44;2.45;;;0.63;;
22628;SDS011;11481;53.694;9.910;2022-09-17T12:31:39;3.25;;;0.70;;
22628;SDS011;11481;53.694;9.910;2022-09-17T12:34:23;8.02;;;0.75;;
22628;SDS011;11481;53.694;9.910;2022-09-17T12:36:59;5.00;;;1.05;;
22628;SDS011;11481;53.694;9.910;2022-09-17T12:42:46;1.45;;;0.50;;
22628;SDS011;11481;53.694;9.910;2022-09-17T12:45:19;2.08;;;0.52;;
22628;SDS011;11481;53.694;9.910;2022-09-17T12:53:21;2.08;;;0.88;;
22628;SDS011;11481;53.694;9.910;2022-09-17T13:01:05;7.45;;;0.70;;
22628;SDS011;11481;53.694;9.910;2022-09-17T13:03:41;2.15;;;0.77;;
22628;SDS011;11481;53.694;9.910;2022-09-17T13:14:46;2.83;;;0.50;;
22628;SDS011;11481;53.694;9.910;2022-09-17T13:20:26;1.85;;;0.73;;
22628;SDS011;11481;53.694;9.910;2022-09-17T13:22:59;1.65;;;0.38;;
22628;SDS011;11481;53.694;9.910;2022-09-17T13:25:26;1.95;;;0.20;;
22628;SDS011;11481;53.694;9.910;2022-09-17T13:28:03;1.98;;;0.20;;
22628;SDS011;11481;53.694;9.910;2022-09-17T13:39:04;0.55;;;0.20;;
22628;SDS011;11481;53.694;9.910;2022-09-17T13:41:34;0.00;;;0.00;;
22628;SDS011;11481;53.694;9.910;2022-09-17T13:44:04;0.00;;;0.00;;
22628;SDS011;11481;53.694;9.910;2022-09-17T13:46:33;0.20;;;0.10;;
22628;SDS011;11481;53.694;9.910;2022-09-17T13:49:10;0.00;;;0.00;;
22628;SDS011;11481;53.694;9.910;2022-09-17T13:51:41;0.30;;;0.08;;
22628;SDS011;11481;53.694;9.910;2022-09-17T13:54:10;0.03;;;0.00;;
22628;SDS011;11481;53.694;9.910;2022-09-17T13:56:48;0.00;;;0.00;;
22628;SDS011;11481;53.694;9.910;2022-09-17T13:59:27;0.50;;;0.10;;
22628;SDS011;11481;53.694;9.910;2022-09-17T14:04:32;1.08;;;0.25;;
22628;SDS011;11481;53.694;9.910;2022-09-17T14:06:58;0.50;;;0.10;;
22628;SDS011;11481;53.694;9.910;2022-09-17T14:09:44;0.43;;;0.13;;
22628;SDS011;11481;53.694;9.910;2022-09-17T14:12:57;1.17;;;0.10;;
22628;SDS011;11481;53.694;9.910;2022-09-17T14:18:36;0.50;;;0.20;;
22628;SDS011;11481;53.694;9.910;2022-09-17T14:23:46;0.55;;;0.13;;
22628;SDS011;11481;53.694;9.910;2022-09-17T14:31:56;0.10;;;0.10;;
22628;SDS011;11481;53.694;9.910;2022-09-17T14:34:23;0.47;;;0.10;;
22628;SDS011;11481;53.694;9.910;2022-09-17T14:36:55;0.10;;;0.10;;
22628;SDS011;11481;53.694;9.910;2022-09-17T14:39:29;0.25;;;0.25;;
22628;SDS011;11481;53.694;9.910;2022-09-17T14:42:04;2.63;;;0.45;;
22628;SDS011;11481;53.694;9.910;2022-09-17T14:44:43;1.63;;;0.98;;
22628;SDS011;11481;53.694;9.910;2022-09-17T14:47:17;4.25;;;0.47;;
22628;SDS011;11481;53.694;9.910;2022-09-17T14:49:46;1.33;;;0.47;;
22628;SDS011;11481;53.694;9.910;2022-09-17T14:52:18;1.52;;;0.40;;
22628;SDS011;11481;53.694;9.910;2022-09-17T14:55:08;2.35;;;0.40;;
22628;SDS011;11481;53.694;9.910;2022-09-17T14:57:52;2.95;;;0.50;;
22628;SDS011;11481;53.694;9.910;2022-09-17T15:00:24;5.85;;;0.47;;
22628;SDS011;11481;53.694;9.910;2022-09-17T15:02:55;4.88;;;0.63;;
22628;SDS011;11481;53.694;9.910;2022-09-17T15:05:29;0.85;;;0.52;;
22628;SDS011;11481;53.694;9.910;2022-09-17T15:08:15;0.40;;;0.13;;
22628;SDS011;11481;53.694;9.910;2022-09-17T15:10:57;2.10;;;0.50;;
22628;SDS011;11481;53.694;9.910;2022-09-17T15:13:33;1.92;;;0.22;;
22628;SDS011;11481;53.694;9.910;2022-09-17T15:16:27;0.35;;;0.30;;
22628;SDS011;11481;53.694;9.910;2022-09-17T15:18:56;0.52;;;0.40;;
22628;SDS011;11481;53.694;9.910;2022-09-17T15:23:57;2.13;;;0.28;;
22628;SDS011;11481;53.694;9.910;2022-09-17T15:26:45;1.27;;;0.17;;
22628;SDS011;11481;53.694;9.910;2022-09-17T15:29:18;0.08;;;0.00;;
22628;SDS011;11481;53.694;9.910;2022-09-17T15:31:48;1.05;;;0.30;;
22628;SDS011;11481;53.694;9.910;2022-09-17T15:34:14;0.25;;;0.25;;
22628;SDS011;11481;53.694;9.910;2022-09-17T15:37:01;1.27;;;0.32;;
22628;SDS011;11481;53.694;9.910;2022-09-17T15:39:49;2.30;;;0.38;;
22628;SDS011;11481;53.694;9.910;2022-09-17T15:42:18;2.05;;;0.38;;
22628;SDS011;11481;53.694;9.910;2022-09-17T15:45:04;0.40;;;0.13;;
22628;SDS011;11481;53.694;9.910;2022-09-17T15:47:48;1.35;;;0.10;;
22628;SDS011;11481;53.694;9.910;2022-09-17T15:52:56;0.80;;;0.65;;
22628;SDS011;11481;53.694;9.910;2022-09-17T15:55:41;1.80;;;0.20;;
22628;SDS011;11481;53.694;9.910;2022-09-17T15:58:26;0.90;;;0.43;;
22628;SDS011;11481;53.694;9.910;2022-09-17T16:06:44;2.65;;;0.60;;
22628;SDS011;11481;53.694;9.910;2022-09-17T16:09:02;2.55;;;0.30;;
22628;SDS011;11481;53.694;9.910;2022-09-17T16:11:49;5.40;;;0.40;;
22628;SDS011;11481;53.694;9.910;2022-09-17T16:14:16;3.35;;;0.25;;
22628;SDS011;11481;53.694;9.910;2022-09-17T16:16:42;0.32;;;0.15;;
22628;SDS011;11481;53.694;9.910;2022-09-17T16:19:09;0.65;;;0.20;;
22628;SDS011;11481;53.694;9.910;2022-09-17T16:21:35;2.00;;;0.75;;
22628;SDS011;11481;53.694;9.910;2022-09-17T16:24:02;0.32;;;0.20;;
22628;SDS011;11481;53.694;9.910;2022-09-17T16:26:29;1.00;;;0.30;;
22628;SDS011;11481;53.694;9.910;2022-09-17T16:29:01;3.90;;;0.40;;
22628;SDS011;11481;53.694;9.910;2022-09-17T16:31:30;0.80;;;0.40;;
22628;SDS011;11481;53.694;9.910;2022-09-17T16:33:58;1.02;;;0.20;;
22628;SDS011;11481;53.694;9.910;2022-09-17T16:36:25;0.60;;;0.13;;
22628;SDS011;11481;53.694;9.910;2022-09-17T16:38:52;3.28;;;0.85;;
22628;SDS011;11481;53.694;9.910;2022-09-17T16:41:18;1.70;;;0.35;;
22628;SDS011;11481;53.694;9.910;2022-09-17T16:43:45;0.57;;;0.10;;
22628;SDS011;11481;53.694;9.910;2022-09-17T16:46:11;0.35;;;0.35;;
22628;SDS011;11481;53.694;9.910;2022-09-17T16:48:39;1.65;;;0.20;;
22628;SDS011;11481;53.694;9.910;2022-09-17T16:51:10;0.57;;;0.10;;
22628;SDS011;11481;53.694;9.910;2022-09-17T16:53:38;0.32;;;0.32;;
22628;SDS011;11481;53.694;9.910;2022-09-17T16:56:05;0.82;;;0.40;;
22628;SDS011;11481;53.694;9.910;2022-09-17T16:58:35;1.15;;;0.20;;
22628;SDS011;11481;53.694;9.910;2022-09-17T17:01:12;1.27;;;0.30;;
22628;SDS011;11481;53.694;9.910;2022-09-17T17:03:40;2.60;;;0.20;;
22628;SDS011;11481;53.694;9.910;2022-09-17T17:06:14;5.55;;;0.77;;
22628;SDS011;11481;53.694;9.910;2022-09-17T17:08:41;2.25;;;0.47;;
22628;SDS011;11481;53.694;9.910;2022-09-17T17:11:08;0.52;;;0.20;;
22628;SDS011;11481;53.694;9.910;2022-09-17T17:13:35;0.90;;;0.25;;
22628;SDS011;11481;53.694;9.910;2022-09-17T17:16:08;0.20;;;0.10;;
22628;SDS011;11481;53.694;9.910;2022-09-17T17:18:36;3.03;;;0.32;;
22628;SDS011;11481;53.694;9.910;2022-09-17T17:21:04;0.47;;;0.35;;
22628;SDS011;11481;53.694;9.910;2022-09-17T17:23:32;5.43;;;0.50;;
22628;SDS011;11481;53.694;9.910;2022-09-17T17:25:59;0.68;;;0.30;;
22628;SDS011;11481;53.694;9.910;2022-09-17T17:28:25;1.27;;;0.40;;
22628;SDS011;11481;53.694;9.910;2022-09-17T17:30:52;1.63;;;0.28;;
22628;SDS011;11481;53.694;9.910;2022-09-17T17:33:19;0.38;;;0.22;;
22628;SDS011;11481;53.694;9.910;2022-09-17T17:35:45;0.65;;;0.22;;
22628;SDS011;11481;53.694;9.910;2022-09-17T17:38:12;0.85;;;0.30;;
22628;SDS011;11481;53.694;9.910;2022-09-17T17:40:38;1.00;;;0.22;;
22628;SDS011;11481;53.694;9.910;2022-09-17T17:43:05;1.00;;;0.25;;
22628;SDS011;11481;53.694;9.910;2022-09-17T17:45:32;1.42;;;0.20;;
22628;SDS011;11481;53.694;9.910;2022-09-17T17:47:58;1.65;;;0.57;;
22628;SDS011;11481;53.694;9.910;2022-09-17T17:50:25;0.15;;;0.10;;
22628;SDS011;11481;53.694;9.910;2022-09-17T17:52:54;0.65;;;0.25;;
22628;SDS011;11481;53.694;9.910;2022-09-17T17:55:21;2.63;;;0.30;;
22628;SDS011;11481;53.694;9.910;2022-09-17T17:57:47;1.02;;;0.25;;